createdAt,value
2017-06-02T00:00:14.694Z,1012.57
2017-06-02T00:01:16.184Z,1012.60
2017-06-02T00:02:17.648Z,1012.58
2017-06-02T00:03:19.112Z,1012.59
2017-06-02T00:04:20.672Z,1012.57
2017-06-02T00:05:22.142Z,1012.57
2017-06-02T00:06:23.594Z,1012.58
2017-06-02T00:07:25.054Z,1012.55
2017-06-02T00:08:26.506Z,1012.53
2017-06-02T00:09:27.965Z,1012.50
2017-06-02T00:10:29.434Z,1012.51
2017-06-02T00:11:30.889Z,1012.53
2017-06-02T00:12:32.343Z,1012.50
2017-06-02T00:13:33.795Z,1012.49
2017-06-02T00:14:35.249Z,1012.46
2017-06-02T00:15:36.707Z,1012.47
2017-06-02T00:16:38.178Z,1012.44
2017-06-02T00:17:39.644Z,1012.44
2017-06-02T00:18:41.102Z,1012.42
2017-06-02T00:19:42.565Z,1012.39
2017-06-02T00:20:44.036Z,1012.36
2017-06-02T00:21:45.498Z,1012.37
2017-06-02T00:22:46.957Z,1012.36
2017-06-02T00:23:48.417Z,1012.35
2017-06-02T00:24:49.872Z,1012.39
2017-06-02T00:25:51.335Z,1012.37
2017-06-02T00:26:52.795Z,1012.38
2017-06-02T00:27:54.256Z,1012.37
2017-06-02T00:28:55.723Z,1012.30
2017-06-02T00:29:57.169Z,1012.32
2017-06-02T00:30:58.624Z,1012.31
2017-06-02T00:32:00.085Z,1012.27
2017-06-02T00:33:01.537Z,1012.28
2017-06-02T00:34:02.994Z,1012.26
2017-06-02T00:35:04.451Z,1012.28
2017-06-02T00:36:06.439Z,1012.23
2017-06-02T00:37:07.895Z,1012.22
2017-06-02T00:38:09.349Z,1012.26
2017-06-02T00:39:10.808Z,1012.19
2017-06-02T00:40:12.280Z,1012.22
2017-06-02T00:41:13.754Z,1012.19
2017-06-02T00:42:15.214Z,1012.17
2017-06-02T00:43:16.673Z,1012.15
2017-06-02T00:44:18.130Z,1012.15
2017-06-02T00:45:19.583Z,1012.15
2017-06-02T00:46:21.059Z,1012.15
2017-06-02T00:47:22.510Z,1012.12
2017-06-02T00:48:24.160Z,1012.12
2017-06-02T00:49:25.992Z,1012.14
2017-06-02T00:50:27.597Z,1012.10
2017-06-02T00:51:29.134Z,1012.10
2017-06-02T00:52:30.592Z,1012.10
2017-06-02T00:53:32.048Z,1012.09
2017-06-02T00:54:33.501Z,1012.09
2017-06-02T00:55:34.957Z,1012.10
2017-06-02T00:56:36.430Z,1012.09
2017-06-02T00:57:37.887Z,1012.04
2017-06-02T00:58:39.342Z,1012.09
2017-06-02T00:59:40.806Z,1012.12
2017-06-02T01:00:42.270Z,1012.06
2017-06-02T01:01:43.724Z,1012.12
2017-06-02T01:02:45.181Z,1012.10
2017-06-02T01:03:46.657Z,1012.08
2017-06-02T01:04:48.108Z,1012.13
2017-06-02T01:05:49.565Z,1012.11
2017-06-02T01:06:51.022Z,1012.10
2017-06-02T01:07:52.474Z,1012.06
2017-06-02T01:08:53.930Z,1012.07
2017-06-02T01:09:55.387Z,1012.04
2017-06-02T01:10:56.842Z,1012.04
2017-06-02T01:11:58.292Z,1011.99
2017-06-02T01:12:59.751Z,1011.96
2017-06-02T01:14:01.215Z,1011.96
2017-06-02T01:15:02.671Z,1011.99
2017-06-02T01:16:04.142Z,1012.00
2017-06-02T01:17:05.599Z,1012.00
2017-06-02T01:18:07.061Z,1012.02
2017-06-02T01:19:08.517Z,1012.02
2017-06-02T01:20:09.979Z,1012.04
2017-06-02T01:21:11.432Z,1012.02
2017-06-02T01:22:12.896Z,1012.01
2017-06-02T01:23:14.357Z,1012.00
2017-06-02T01:24:15.814Z,1011.96
2017-06-02T01:25:17.266Z,1011.97
2017-06-02T01:26:18.723Z,1011.95
2017-06-02T01:27:20.178Z,1011.95
2017-06-02T01:28:21.661Z,1011.95
2017-06-02T01:29:23.121Z,1011.97
2017-06-02T01:30:24.576Z,1011.95
2017-06-02T01:31:26.038Z,1011.98
2017-06-02T01:32:27.494Z,1011.95
2017-06-02T01:33:28.943Z,1011.95
2017-06-02T01:34:30.399Z,1011.93
2017-06-02T01:35:31.858Z,1011.89
2017-06-02T01:36:33.312Z,1011.90
2017-06-02T01:37:34.765Z,1011.91
2017-06-02T01:38:36.221Z,1011.88
2017-06-02T01:39:37.697Z,1011.86
2017-06-02T01:40:39.145Z,1011.86
2017-06-02T01:41:40.613Z,1011.85
2017-06-02T01:42:42.062Z,1011.83
2017-06-02T01:43:43.523Z,1011.87
2017-06-02T01:44:44.984Z,1011.86
2017-06-02T01:45:46.441Z,1011.81
2017-06-02T01:46:47.922Z,1011.85
2017-06-02T01:47:49.373Z,1011.83
2017-06-02T01:48:50.830Z,1011.81
2017-06-02T01:49:52.287Z,1011.82
2017-06-02T01:50:53.746Z,1011.75
2017-06-02T01:51:55.204Z,1011.77
2017-06-02T01:52:56.657Z,1011.75
2017-06-02T01:53:58.108Z,1011.76
2017-06-02T01:54:59.562Z,1011.75
2017-06-02T01:56:01.015Z,1011.79
2017-06-02T01:57:02.468Z,1011.76
2017-06-02T01:58:03.918Z,1011.80
2017-06-02T01:59:05.371Z,1011.76
2017-06-02T02:00:06.832Z,1011.76
2017-06-02T02:01:08.283Z,1011.77
2017-06-02T02:02:09.729Z,1011.79
2017-06-02T02:03:11.186Z,1011.76
2017-06-02T02:04:12.644Z,1011.76
2017-06-02T02:05:14.100Z,1011.75
2017-06-02T02:06:15.569Z,1011.75
2017-06-02T02:07:17.037Z,1011.72
2017-06-02T02:08:18.490Z,1011.75
2017-06-02T02:09:19.941Z,1011.71
2017-06-02T02:10:21.411Z,1011.76
2017-06-02T02:11:22.865Z,1011.72
2017-06-02T02:12:24.322Z,1011.72
2017-06-02T02:13:25.773Z,1011.72
2017-06-02T02:14:27.233Z,1011.72
2017-06-02T02:15:28.702Z,1011.68
2017-06-02T02:16:30.155Z,1011.67
2017-06-02T02:17:31.618Z,1011.69
2017-06-02T02:18:33.062Z,1011.70
2017-06-02T02:19:34.526Z,1011.67
2017-06-02T02:20:35.980Z,1011.68
2017-06-02T02:21:37.435Z,1011.70
2017-06-02T02:22:38.888Z,1011.67
2017-06-02T02:23:40.340Z,1011.71
2017-06-02T02:24:41.812Z,1011.65
2017-06-02T02:25:43.262Z,1011.68
2017-06-02T02:26:44.718Z,1011.67
2017-06-02T02:27:46.168Z,1011.63
2017-06-02T02:28:47.635Z,1011.65
2017-06-02T02:29:49.090Z,1011.71
2017-06-02T02:30:50.550Z,1011.67
2017-06-02T02:31:52.004Z,1011.72
2017-06-02T02:32:53.457Z,1011.70
2017-06-02T02:33:54.914Z,1011.68
2017-06-02T02:34:56.440Z,1011.67
2017-06-02T02:35:57.897Z,1011.68
2017-06-02T02:36:59.357Z,1011.66
2017-06-02T02:38:00.816Z,1011.69
2017-06-02T02:39:02.286Z,1011.63
2017-06-02T02:40:03.743Z,1011.62
2017-06-02T02:41:05.207Z,1011.65
2017-06-02T02:42:06.685Z,1011.67
2017-06-02T02:43:08.141Z,1011.66
2017-06-02T02:44:09.668Z,1011.66
2017-06-02T02:45:11.132Z,1011.64
2017-06-02T02:46:12.600Z,1011.65
2017-06-02T02:47:14.053Z,1011.63
2017-06-02T02:48:15.510Z,1011.64
2017-06-02T02:49:16.968Z,1011.64
2017-06-02T02:50:18.426Z,1011.67
2017-06-02T02:51:19.876Z,1011.60
2017-06-02T02:52:21.329Z,1011.67
2017-06-02T02:53:22.785Z,1011.65
2017-06-02T02:54:24.239Z,1011.62
2017-06-02T02:55:25.709Z,1011.63
2017-06-02T02:56:27.186Z,1011.65
2017-06-02T02:57:28.633Z,1011.60
2017-06-02T02:58:30.092Z,1011.59
2017-06-02T02:59:31.547Z,1011.64
2017-06-02T03:00:33.009Z,1011.62
2017-06-02T03:01:34.461Z,1011.62
2017-06-02T03:02:35.918Z,1011.63
2017-06-02T03:03:37.375Z,1011.57
2017-06-02T03:04:38.833Z,1011.62
2017-06-02T03:05:40.288Z,1011.58
2017-06-02T03:06:41.768Z,1011.56
2017-06-02T03:07:43.232Z,1011.55
2017-06-02T03:08:44.693Z,1011.58
2017-06-02T03:09:46.152Z,1011.56
2017-06-02T03:10:47.602Z,1011.55
2017-06-02T03:11:49.068Z,1011.55
2017-06-02T03:12:50.519Z,1011.54
2017-06-02T03:13:51.973Z,1011.52
2017-06-02T03:14:53.430Z,1011.50
2017-06-02T03:15:54.887Z,1011.50
2017-06-02T03:16:56.354Z,1011.51
2017-06-02T03:17:57.814Z,1011.50
2017-06-02T03:18:59.272Z,1011.49
2017-06-02T03:20:00.724Z,1011.48
2017-06-02T03:21:02.179Z,1011.47
2017-06-02T03:22:03.637Z,1011.47
2017-06-02T03:23:05.093Z,1011.45
2017-06-02T03:24:06.554Z,1011.47
2017-06-02T03:25:08.020Z,1011.43
2017-06-02T03:26:09.497Z,1011.40
2017-06-02T03:27:10.944Z,1011.42
2017-06-02T03:28:12.399Z,1011.41
2017-06-02T03:29:13.858Z,1011.42
2017-06-02T03:30:15.315Z,1011.42
2017-06-02T03:31:16.786Z,1011.41
2017-06-02T03:32:18.239Z,1011.43
2017-06-02T03:33:19.697Z,1011.41
2017-06-02T03:34:21.221Z,1011.42
2017-06-02T03:35:22.680Z,1011.44
2017-06-02T03:36:24.144Z,1011.40
2017-06-02T03:37:25.601Z,1011.41
2017-06-02T03:38:27.061Z,1011.37
2017-06-02T03:39:28.519Z,1011.42
2017-06-02T03:40:29.977Z,1011.38
2017-06-02T03:41:31.434Z,1011.38
2017-06-02T03:42:32.896Z,1011.38
2017-06-02T03:43:34.359Z,1011.36
2017-06-02T03:44:35.817Z,1011.39
2017-06-02T03:45:37.276Z,1011.40
2017-06-02T03:46:38.738Z,1011.40
2017-06-02T03:47:40.199Z,1011.44
2017-06-02T03:48:41.659Z,1011.44
2017-06-02T03:49:43.115Z,1011.44
2017-06-02T03:50:44.574Z,1011.51
2017-06-02T03:51:46.031Z,1011.46
2017-06-02T03:52:47.496Z,1011.47
2017-06-02T03:53:48.953Z,1011.48
2017-06-02T03:54:50.408Z,1011.46
2017-06-02T03:55:51.864Z,1011.48
2017-06-02T03:56:53.327Z,1011.48
2017-06-02T03:57:54.786Z,1011.45
2017-06-02T03:58:56.248Z,1011.47
2017-06-02T03:59:57.705Z,1011.49
2017-06-02T04:00:59.165Z,1011.49
2017-06-02T04:02:00.622Z,1011.46
2017-06-02T04:03:02.079Z,1011.49
2017-06-02T04:04:03.561Z,1011.51
2017-06-02T04:05:05.018Z,1011.50
2017-06-02T04:06:07.997Z,1011.51
2017-06-02T04:07:09.459Z,1011.49
2017-06-02T04:08:10.921Z,1011.50
2017-06-02T04:09:12.385Z,1011.50
2017-06-02T04:10:13.844Z,1011.49
2017-06-02T04:11:15.295Z,1011.46
2017-06-02T04:12:16.751Z,1011.46
2017-06-02T04:13:18.210Z,1011.45
2017-06-02T04:14:19.670Z,1011.44
2017-06-02T04:15:21.133Z,1011.43
2017-06-02T04:16:22.601Z,1011.40
2017-06-02T04:17:24.057Z,1011.40
2017-06-02T04:18:25.515Z,1011.42
2017-06-02T04:19:26.983Z,1011.42
2017-06-02T04:20:28.448Z,1011.45
2017-06-02T04:21:29.906Z,1011.42
2017-06-02T04:22:31.366Z,1011.45
2017-06-02T04:23:32.827Z,1011.47
2017-06-02T04:24:34.286Z,1011.46
2017-06-02T04:25:35.741Z,1011.50
2017-06-02T04:26:37.205Z,1011.50
2017-06-02T04:27:38.662Z,1011.53
2017-06-02T04:28:40.118Z,1011.50
2017-06-02T04:29:41.576Z,1011.55
2017-06-02T04:30:43.053Z,1011.57
2017-06-02T04:31:44.513Z,1011.59
2017-06-02T04:32:45.971Z,1011.62
2017-06-02T04:33:47.431Z,1011.60
2017-06-02T04:34:48.891Z,1011.60
2017-06-02T04:35:50.351Z,1011.59
2017-06-02T04:36:51.818Z,1011.59
2017-06-02T04:37:53.279Z,1011.58
2017-06-02T04:38:54.744Z,1011.57
2017-06-02T04:39:56.229Z,1011.58
2017-06-02T04:40:57.694Z,1011.62
2017-06-02T04:41:59.153Z,1011.61
2017-06-02T04:43:00.623Z,1011.57
2017-06-02T04:44:02.091Z,1011.55
2017-06-02T04:45:03.565Z,1011.60
2017-06-02T04:46:05.035Z,1011.55
2017-06-02T04:47:06.527Z,1011.58
2017-06-02T04:48:07.990Z,1011.55
2017-06-02T04:49:09.461Z,1011.54
2017-06-02T04:50:10.988Z,1011.51
2017-06-02T04:51:12.450Z,1011.59
2017-06-02T04:52:13.908Z,1011.59
2017-06-02T04:53:15.380Z,1011.59
2017-06-02T04:54:16.857Z,1011.55
2017-06-02T04:55:18.315Z,1011.56
2017-06-02T04:56:19.783Z,1011.59
2017-06-02T04:57:21.259Z,1011.58
2017-06-02T04:58:22.767Z,1011.56
2017-06-02T04:59:24.234Z,1011.57
2017-06-02T05:00:25.703Z,1011.59
2017-06-02T05:01:27.169Z,1011.63
2017-06-02T05:02:28.655Z,1011.62
2017-06-02T05:03:30.102Z,1011.66
2017-06-02T05:04:31.562Z,1011.66
2017-06-02T05:05:33.028Z,1011.64
2017-06-02T05:06:34.491Z,1011.62
2017-06-02T05:07:35.984Z,1011.63
2017-06-02T05:08:37.451Z,1011.65
2017-06-02T05:09:38.917Z,1011.61
2017-06-02T05:10:40.388Z,1011.59
2017-06-02T05:11:41.848Z,1011.55
2017-06-02T05:12:43.351Z,1011.57
2017-06-02T05:13:44.822Z,1011.56
2017-06-02T05:14:46.290Z,1011.53
2017-06-02T05:15:47.758Z,1011.58
2017-06-02T05:16:49.222Z,1011.55
2017-06-02T05:17:50.697Z,1011.54
2017-06-02T05:18:52.173Z,1011.53
2017-06-02T05:19:53.631Z,1011.53
2017-06-02T05:20:55.107Z,1011.55
2017-06-02T05:21:56.576Z,1011.59
2017-06-02T05:22:58.035Z,1011.57
2017-06-02T05:23:59.510Z,1011.60
2017-06-02T05:25:00.991Z,1011.64
2017-06-02T05:26:02.452Z,1011.66
2017-06-02T05:27:03.921Z,1011.71
2017-06-02T05:28:05.389Z,1011.72
2017-06-02T05:29:06.864Z,1011.75
2017-06-02T05:30:08.334Z,1011.70
2017-06-02T05:31:09.806Z,1011.74
2017-06-02T05:32:11.277Z,1011.76
2017-06-02T05:33:12.747Z,1011.73
2017-06-02T05:34:14.250Z,1011.74
2017-06-02T05:35:15.724Z,1011.79
2017-06-02T05:36:17.196Z,1011.76
2017-06-02T05:37:18.665Z,1011.76
2017-06-02T05:38:20.133Z,1011.79
2017-06-02T05:39:21.605Z,1011.78
2017-06-02T05:40:23.101Z,1011.80
2017-06-02T05:41:24.570Z,1011.81
2017-06-02T05:42:26.050Z,1011.83
2017-06-02T05:43:27.518Z,1011.83
2017-06-02T05:44:28.990Z,1011.80
2017-06-02T05:45:30.476Z,1011.77
2017-06-02T05:46:31.963Z,1011.77
2017-06-02T05:47:33.419Z,1011.80
2017-06-02T05:48:34.885Z,1011.75
2017-06-02T05:49:36.367Z,1011.81
2017-06-02T05:50:38.081Z,1011.82
2017-06-02T05:51:39.551Z,1011.79
2017-06-02T05:52:41.025Z,1011.82
2017-06-02T05:53:42.501Z,1011.78
2017-06-02T05:54:43.978Z,1011.79
2017-06-02T05:55:45.447Z,1011.80
2017-06-02T05:56:46.917Z,1011.83
2017-06-02T05:57:48.409Z,1011.81
2017-06-02T05:58:49.891Z,1011.82
2017-06-02T05:59:51.358Z,1011.80
2017-06-02T06:00:52.845Z,1011.82
2017-06-02T06:01:54.333Z,1011.79
2017-06-02T06:02:55.811Z,1011.81
2017-06-02T06:03:57.287Z,1011.84
2017-06-02T06:04:58.757Z,1011.83
2017-06-02T06:06:00.256Z,1011.79
2017-06-02T06:07:01.719Z,1011.81
2017-06-02T06:08:03.191Z,1011.81
2017-06-02T06:09:04.675Z,1011.82
2017-06-02T06:10:06.143Z,1011.83
2017-06-02T06:11:07.658Z,1011.85
2017-06-02T06:12:09.127Z,1011.88
2017-06-02T06:13:10.612Z,1011.89
2017-06-02T06:14:12.093Z,1011.92
2017-06-02T06:15:13.557Z,1011.98
2017-06-02T06:16:15.051Z,1011.95
2017-06-02T06:17:16.548Z,1011.95
2017-06-02T06:18:18.021Z,1011.97
2017-06-02T06:19:19.562Z,1011.97
2017-06-02T06:20:21.057Z,1012.00
2017-06-02T06:21:22.547Z,1011.97
2017-06-02T06:22:24.026Z,1011.98
2017-06-02T06:23:25.531Z,1012.01
2017-06-02T06:24:27.001Z,1012.01
2017-06-02T06:25:28.475Z,1012.04
2017-06-02T06:26:29.951Z,1012.07
2017-06-02T06:27:31.427Z,1012.05
2017-06-02T06:28:32.896Z,1012.08
2017-06-02T06:29:34.378Z,1012.06
2017-06-02T06:30:35.859Z,1012.08
2017-06-02T06:31:37.347Z,1012.10
2017-06-02T06:32:38.833Z,1012.13
2017-06-02T06:33:40.311Z,1012.06
2017-06-02T06:34:41.866Z,1012.07
2017-06-02T06:35:43.291Z,1012.09
2017-06-02T06:36:44.779Z,1012.01
2017-06-02T06:37:46.249Z,1011.94
2017-06-02T06:38:47.727Z,1011.97
2017-06-02T06:39:49.211Z,1011.97
2017-06-02T06:40:50.725Z,1012.02
2017-06-02T06:41:52.203Z,1012.00
2017-06-02T06:42:53.689Z,1012.15
2017-06-02T06:43:55.171Z,1012.18
2017-06-02T06:44:56.653Z,1012.19
2017-06-02T06:45:58.133Z,1012.21
2017-06-02T06:46:59.607Z,1012.21
2017-06-02T06:48:01.087Z,1012.27
2017-06-02T06:49:02.573Z,1012.44
2017-06-02T06:50:04.063Z,1012.73
2017-06-02T06:51:05.551Z,1012.68
2017-06-02T06:52:07.031Z,1012.55
2017-06-02T06:53:08.515Z,1012.76
2017-06-02T06:54:10.012Z,1013.19
2017-06-02T06:55:11.533Z,1012.91
2017-06-02T06:56:13.047Z,1012.65
2017-06-02T06:57:14.519Z,1012.83
2017-06-02T06:58:16.000Z,1013.35
2017-06-02T06:59:17.476Z,1013.42
2017-06-02T07:00:18.963Z,1012.93
2017-06-02T07:01:20.458Z,1012.66
2017-06-02T07:02:21.934Z,1012.24
2017-06-02T07:03:23.422Z,1012.58
2017-06-02T07:04:24.906Z,1012.70
2017-06-02T07:05:26.386Z,1012.51
2017-06-02T07:06:27.895Z,1011.88
2017-06-02T07:07:29.371Z,1011.92
2017-06-02T07:08:30.862Z,1011.97
2017-06-02T07:09:32.329Z,1012.43
2017-06-02T07:10:33.816Z,1012.24
2017-06-02T07:11:35.306Z,1012.53
2017-06-02T07:12:36.806Z,1012.19
2017-06-02T07:13:38.290Z,1012.11
2017-06-02T07:14:39.791Z,1011.84
2017-06-02T07:15:41.276Z,1011.91
2017-06-02T07:16:42.756Z,1011.87
2017-06-02T07:17:44.242Z,1012.38
2017-06-02T07:18:45.736Z,1012.40
2017-06-02T07:19:47.216Z,1012.20
2017-06-02T07:20:48.695Z,1011.98
2017-06-02T07:21:50.179Z,1011.96
2017-06-02T07:22:51.668Z,1011.93
2017-06-02T07:23:53.181Z,1012.42
2017-06-02T07:24:54.633Z,1012.31
2017-06-02T07:25:56.113Z,1011.81
2017-06-02T07:26:57.586Z,1012.28
2017-06-02T07:27:59.069Z,1011.75
2017-06-02T07:29:00.554Z,1012.29
2017-06-02T07:30:02.039Z,1011.74
2017-06-02T07:31:03.530Z,1011.72
2017-06-02T07:32:05.002Z,1012.22
2017-06-02T07:33:06.474Z,1012.21
2017-06-02T07:34:07.959Z,1012.23
2017-06-02T07:35:09.440Z,1012.20
2017-06-02T07:36:10.926Z,1012.29
2017-06-02T07:37:12.412Z,1011.86
2017-06-02T07:38:13.899Z,1011.93
2017-06-02T07:39:15.406Z,1012.24
2017-06-02T07:40:16.883Z,1012.30
2017-06-02T07:41:18.368Z,1012.26
2017-06-02T07:42:19.882Z,1012.28
2017-06-02T07:43:21.384Z,1012.29
2017-06-02T07:44:22.879Z,1012.34
2017-06-02T07:45:24.355Z,1012.20
2017-06-02T07:46:25.838Z,1012.20
2017-06-02T07:47:27.346Z,1012.14
2017-06-02T07:48:28.824Z,1012.13
2017-06-02T07:49:30.301Z,1012.14
2017-06-02T07:50:31.785Z,1012.17
2017-06-02T07:51:33.276Z,1011.92
2017-06-02T07:52:34.748Z,1011.95
2017-06-02T07:53:36.229Z,1012.02
2017-06-02T07:54:37.722Z,1011.93
2017-06-02T07:55:39.201Z,1011.88
2017-06-02T07:56:40.680Z,1011.80
2017-06-02T07:57:42.164Z,1011.74
2017-06-02T07:58:43.649Z,1011.99
2017-06-02T07:59:45.132Z,1011.75
2017-06-02T08:00:46.606Z,1011.72
2017-06-02T08:01:48.085Z,1011.73
2017-06-02T08:02:49.570Z,1011.77
2017-06-02T08:03:51.049Z,1011.99
2017-06-02T08:04:52.529Z,1011.80
2017-06-02T08:05:54.015Z,1011.77
2017-06-02T08:06:55.513Z,1011.71
2017-06-02T08:07:56.989Z,1011.71
2017-06-02T08:08:58.468Z,1011.71
2017-06-02T08:09:59.951Z,1011.73
2017-06-02T08:11:01.424Z,1011.67
2017-06-02T08:12:02.902Z,1011.79
2017-06-02T08:13:04.381Z,1011.81
2017-06-02T08:14:05.868Z,1011.76
2017-06-02T08:15:07.345Z,1011.79
2017-06-02T08:16:08.847Z,1011.76
2017-06-02T08:17:10.340Z,1011.85
2017-06-02T08:18:11.816Z,1011.88
2017-06-02T08:19:13.302Z,1011.95
2017-06-02T08:20:14.798Z,1011.87
2017-06-02T08:21:16.297Z,1011.80
2017-06-02T08:22:17.779Z,1011.82
2017-06-02T08:23:19.254Z,1011.82
2017-06-02T08:24:20.845Z,1011.85
2017-06-02T08:25:22.330Z,1011.82
2017-06-02T08:26:23.835Z,1011.91
2017-06-02T08:27:25.326Z,1011.92
2017-06-02T08:28:26.803Z,1011.94
2017-06-02T08:29:28.293Z,1012.01
2017-06-02T08:30:29.786Z,1012.03
2017-06-02T08:31:31.268Z,1011.96
2017-06-02T08:32:32.751Z,1011.96
2017-06-02T08:33:34.271Z,1011.90
2017-06-02T08:34:35.764Z,1011.91
2017-06-02T08:35:37.251Z,1011.92
2017-06-02T08:36:38.746Z,1011.85
2017-06-02T08:37:40.243Z,1011.84
2017-06-02T08:38:41.747Z,1011.85
2017-06-02T08:39:43.213Z,1011.84
2017-06-02T08:40:44.725Z,1011.86
2017-06-02T08:41:46.210Z,1011.84
2017-06-02T08:42:47.705Z,1011.85
2017-06-02T08:43:49.180Z,1011.85
2017-06-02T08:44:50.751Z,1011.83
2017-06-02T08:45:52.268Z,1011.86
2017-06-02T08:46:53.768Z,1011.97
2017-06-02T08:47:55.254Z,1011.95
2017-06-02T08:48:56.742Z,1011.92
2017-06-02T08:49:58.221Z,1011.94
2017-06-02T08:50:59.711Z,1011.83
2017-06-02T08:52:01.199Z,1011.91
2017-06-02T08:53:02.683Z,1011.87
2017-06-02T08:54:04.171Z,1011.79
2017-06-02T08:55:05.658Z,1011.78
2017-06-02T08:56:07.150Z,1011.79
2017-06-02T08:57:08.631Z,1011.84
2017-06-02T08:58:10.117Z,1011.91
2017-06-02T08:59:11.605Z,1011.94
2017-06-02T09:00:13.094Z,1011.96
2017-06-02T09:01:14.589Z,1012.04
2017-06-02T09:02:16.105Z,1012.00
2017-06-02T09:03:17.594Z,1012.01
2017-06-02T09:04:19.081Z,1012.02
2017-06-02T09:05:20.566Z,1012.02
2017-06-02T09:06:22.058Z,1011.94
2017-06-02T09:07:23.535Z,1011.94
2017-06-02T09:08:25.023Z,1011.95
2017-06-02T09:09:26.514Z,1011.97
2017-06-02T09:10:28.010Z,1011.91
2017-06-02T09:11:29.491Z,1011.87
2017-06-02T09:12:30.976Z,1011.83
2017-06-02T09:13:32.469Z,1011.80
2017-06-02T09:14:33.963Z,1011.76
2017-06-02T09:15:35.446Z,1011.68
2017-06-02T09:16:36.927Z,1011.77
2017-06-02T09:17:38.419Z,1011.79
2017-06-02T09:18:39.900Z,1011.75
2017-06-02T09:19:41.394Z,1011.73
2017-06-02T09:20:42.876Z,1011.84
2017-06-02T09:21:44.356Z,1011.82
2017-06-02T09:22:45.835Z,1011.74
2017-06-02T09:23:47.371Z,1011.78
2017-06-02T09:24:48.852Z,1011.83
2017-06-02T09:25:50.330Z,1011.78
2017-06-02T09:26:51.820Z,1011.72
2017-06-02T09:27:53.316Z,1011.76
2017-06-02T09:28:54.808Z,1011.71
2017-06-02T09:29:56.287Z,1011.66
2017-06-02T09:30:57.786Z,1011.63
2017-06-02T09:31:59.286Z,1011.71
2017-06-02T09:33:00.773Z,1011.74
2017-06-02T09:34:02.259Z,1011.71
2017-06-02T09:35:03.741Z,1011.66
2017-06-02T09:36:05.238Z,1011.70
2017-06-02T09:37:06.718Z,1011.72
2017-06-02T09:38:08.203Z,1011.70
2017-06-02T09:39:09.693Z,1011.71
2017-06-02T09:40:11.191Z,1011.71
2017-06-02T09:41:12.707Z,1011.63
2017-06-02T09:42:14.196Z,1011.64
2017-06-02T09:43:15.689Z,1011.71
2017-06-02T09:44:17.171Z,1011.65
2017-06-02T09:45:18.664Z,1011.65
2017-06-02T09:46:20.168Z,1011.69
2017-06-02T09:47:21.649Z,1011.66
2017-06-02T09:48:23.152Z,1011.69
2017-06-02T09:49:24.631Z,1011.68
2017-06-02T09:50:26.140Z,1011.67
2017-06-02T09:51:27.607Z,1011.71
2017-06-02T09:52:29.101Z,1011.76
2017-06-02T09:53:30.608Z,1011.76
2017-06-02T09:54:32.088Z,1011.81
2017-06-02T09:55:33.571Z,1011.86
2017-06-02T09:56:35.056Z,1011.88
2017-06-02T09:57:36.541Z,1011.77
2017-06-02T09:58:38.025Z,1011.77
2017-06-02T09:59:39.504Z,1011.76
2017-06-02T10:00:40.989Z,1011.77
2017-06-02T10:01:42.480Z,1011.66
2017-06-02T10:02:43.964Z,1011.68
2017-06-02T10:03:45.440Z,1011.70
2017-06-02T10:04:46.930Z,1011.67
2017-06-02T10:05:48.412Z,1011.70
2017-06-02T10:06:49.899Z,1011.69
2017-06-02T10:07:51.389Z,1011.72
2017-06-02T10:08:52.867Z,1011.71
2017-06-02T10:09:54.350Z,1011.66
2017-06-02T10:10:55.835Z,1011.65
2017-06-02T10:11:57.329Z,1011.69
2017-06-02T10:12:58.813Z,1011.68
2017-06-02T10:14:00.312Z,1011.68
2017-06-02T10:15:01.799Z,1011.80
2017-06-02T10:16:03.287Z,1011.89
2017-06-02T10:17:04.783Z,1011.69
2017-06-02T10:18:06.267Z,1011.53
2017-06-02T10:19:07.752Z,1011.51
2017-06-02T10:20:09.232Z,1011.44
2017-06-02T10:21:10.722Z,1011.41
2017-06-02T10:22:12.210Z,1011.48
2017-06-02T10:23:13.699Z,1011.45
2017-06-02T10:24:15.202Z,1011.48
2017-06-02T10:25:16.686Z,1011.50
2017-06-02T10:26:18.186Z,1011.51
2017-06-02T10:27:19.680Z,1011.47
2017-06-02T10:28:21.182Z,1011.45
2017-06-02T10:29:22.661Z,1011.47
2017-06-02T10:30:24.143Z,1011.47
2017-06-02T10:31:25.625Z,1011.50
2017-06-02T10:32:27.128Z,1011.51
2017-06-02T10:33:28.614Z,1011.54
2017-06-02T10:34:30.096Z,1011.51
2017-06-02T10:35:31.590Z,1011.49
2017-06-02T10:36:33.081Z,1011.54
2017-06-02T10:37:34.570Z,1011.51
2017-06-02T10:38:36.057Z,1011.47
2017-06-02T10:39:37.547Z,1011.44
2017-06-02T10:40:39.030Z,1011.47
2017-06-02T10:41:40.527Z,1011.51
2017-06-02T10:42:42.032Z,1011.49
2017-06-02T10:43:43.540Z,1011.51
2017-06-02T10:44:45.015Z,1011.56
2017-06-02T10:45:46.537Z,1011.51
2017-06-02T10:46:48.034Z,1011.48
2017-06-02T10:47:49.522Z,1011.45
2017-06-02T10:48:51.009Z,1011.42
2017-06-02T10:49:52.503Z,1011.43
2017-06-02T10:50:54.008Z,1011.43
2017-06-02T10:51:55.496Z,1011.39
2017-06-02T10:52:57.049Z,1011.41
2017-06-02T10:53:58.538Z,1011.38
2017-06-02T10:55:00.025Z,1011.39
2017-06-02T10:56:01.520Z,1011.34
2017-06-02T10:57:03.006Z,1011.39
2017-06-02T10:58:04.501Z,1011.34
2017-06-02T10:59:05.990Z,1011.31
2017-06-02T11:00:07.474Z,1011.27
2017-06-02T11:01:08.958Z,1011.24
2017-06-02T11:02:10.457Z,1011.23
2017-06-02T11:03:11.956Z,1011.23
2017-06-02T11:04:13.451Z,1011.26
2017-06-02T11:05:14.935Z,1011.23
2017-06-02T11:06:16.430Z,1011.20
2017-06-02T11:07:17.925Z,1011.19
2017-06-02T11:08:19.410Z,1011.26
2017-06-02T11:09:20.896Z,1011.18
2017-06-02T11:10:22.391Z,1011.22
2017-06-02T11:11:23.895Z,1011.15
2017-06-02T11:12:25.381Z,1011.18
2017-06-02T11:13:26.864Z,1011.21
2017-06-02T11:14:28.346Z,1011.21
2017-06-02T11:15:29.849Z,1011.27
2017-06-02T11:16:31.337Z,1011.25
2017-06-02T11:17:32.820Z,1011.23
2017-06-02T11:18:34.306Z,1011.25
2017-06-02T11:19:35.826Z,1011.28
2017-06-02T11:20:37.318Z,1011.25
2017-06-02T11:21:38.813Z,1011.27
2017-06-02T11:22:40.317Z,1011.24
2017-06-02T11:23:41.807Z,1011.20
2017-06-02T11:24:43.306Z,1011.19
2017-06-02T11:25:44.808Z,1011.22
2017-06-02T11:26:46.307Z,1011.20
2017-06-02T11:27:47.797Z,1011.19
2017-06-02T11:28:49.286Z,1011.21
2017-06-02T11:29:50.790Z,1011.24
2017-06-02T11:30:52.287Z,1011.14
2017-06-02T11:31:53.777Z,1011.18
2017-06-02T11:32:55.278Z,1011.25
2017-06-02T11:33:56.774Z,1011.35
2017-06-02T11:34:58.291Z,1011.26
2017-06-02T11:35:59.781Z,1011.18
2017-06-02T11:37:01.318Z,1011.17
2017-06-02T11:38:02.796Z,1011.09
2017-06-02T11:39:04.289Z,1011.10
2017-06-02T11:40:05.795Z,1011.04
2017-06-02T11:41:07.304Z,1011.05
2017-06-02T11:42:08.788Z,1010.99
2017-06-02T11:43:10.270Z,1010.92
2017-06-02T11:44:11.743Z,1010.99
2017-06-02T11:45:13.252Z,1010.92
2017-06-02T11:46:14.734Z,1011.00
2017-06-02T11:47:16.236Z,1010.91
2017-06-02T11:48:17.718Z,1010.89
2017-06-02T11:49:19.214Z,1010.91
2017-06-02T11:50:20.709Z,1010.97
2017-06-02T11:51:22.191Z,1010.98
2017-06-02T11:52:23.677Z,1010.93
2017-06-02T11:53:25.188Z,1010.86
2017-06-02T11:54:26.749Z,1010.80
2017-06-02T11:55:28.239Z,1010.75
2017-06-02T11:56:29.732Z,1010.73
2017-06-02T11:57:31.223Z,1010.70
2017-06-02T11:58:32.750Z,1010.76
2017-06-02T11:59:34.236Z,1010.80
2017-06-02T12:00:35.732Z,1010.82
2017-06-02T12:01:37.223Z,1010.79
2017-06-02T12:02:38.709Z,1010.80
2017-06-02T12:03:40.224Z,1010.78
2017-06-02T12:04:41.707Z,1010.74
2017-06-02T12:05:43.226Z,1010.91
2017-06-02T12:06:44.743Z,1010.67
2017-06-02T12:07:46.224Z,1010.87
2017-06-02T12:08:47.714Z,1010.65
2017-06-02T12:09:49.200Z,1010.56
2017-06-02T12:10:50.693Z,1010.96
2017-06-02T12:11:52.175Z,1010.60
2017-06-02T12:12:53.658Z,1010.60
2017-06-02T12:13:55.147Z,1010.81
2017-06-02T12:14:56.642Z,1010.71
2017-06-02T12:15:58.218Z,1010.48
2017-06-02T12:16:59.583Z,1010.56
2017-06-02T12:18:01.069Z,1010.44
2017-06-02T12:19:02.552Z,1010.41
2017-06-02T12:20:04.033Z,1010.39
2017-06-02T12:21:05.514Z,1010.47
2017-06-02T12:22:07.012Z,1010.52
2017-06-02T12:23:08.501Z,1010.41